sensor_id;sensor_type;location;lat;lon;timestamp;P1;durP1;ratioP1;P2;durP2;ratioP2
83707;SDS011;73692;49.562;11.144;2023-11-18T00:00:06;6.55;;;3.65;;
83707;SDS011;73692;49.562;11.144;2023-11-18T00:02:37;6.93;;;4.10;;
83707;SDS011;73692;49.562;11.144;2023-11-18T00:05:03;6.75;;;4.05;;
83707;SDS011;73692;49.562;11.144;2023-11-18T00:07:29;7.88;;;4.13;;
83707;SDS011;73692;49.562;11.144;2023-11-18T00:09:54;11.40;;;5.20;;
83707;SDS011;73692;49.562;11.144;2023-11-18T00:12:19;9.67;;;6.10;;
83707;SDS011;73692;49.562;11.144;2023-11-18T00:14:45;10.45;;;5.60;;
83707;SDS011;73692;49.562;11.144;2023-11-18T00:17:11;11.90;;;5.32;;
83707;SDS011;73692;49.562;11.144;2023-11-18T00:19:37;9.20;;;5.68;;
83707;SDS011;73692;49.562;11.144;2023-11-18T00:22:02;10.87;;;6.30;;
83707;SDS011;73692;49.562;11.144;2023-11-18T00:24:28;10.40;;;5.30;;
83707;SDS011;73692;49.562;11.144;2023-11-18T00:26:53;8.93;;;5.70;;
83707;SDS011;73692;49.562;11.144;2023-11-18T00:29:20;10.00;;;4.57;;
83707;SDS011;73692;49.562;11.144;2023-11-18T00:31:45;8.68;;;4.63;;
83707;SDS011;73692;49.562;11.144;2023-11-18T00:34:11;8.63;;;4.50;;
83707;SDS011;73692;49.562;11.144;2023-11-18T00:36:36;8.13;;;4.10;;
83707;SDS011;73692;49.562;11.144;2023-11-18T00:39:01;7.03;;;3.63;;
83707;SDS011;73692;49.562;11.144;2023-11-18T00:41:29;7.75;;;4.65;;
83707;SDS011;73692;49.562;11.144;2023-11-18T00:43:54;8.40;;;4.68;;
83707;SDS011;73692;49.562;11.144;2023-11-18T00:46:19;8.57;;;4.27;;
83707;SDS011;73692;49.562;11.144;2023-11-18T00:48:45;8.47;;;4.77;;
83707;SDS011;73692;49.562;11.144;2023-11-18T00:51:10;8.63;;;5.03;;
83707;SDS011;73692;49.562;11.144;2023-11-18T00:53:35;8.83;;;5.27;;
83707;SDS011;73692;49.562;11.144;2023-11-18T00:56:01;12.18;;;4.70;;
83707;SDS011;73692;49.562;11.144;2023-11-18T00:58:26;12.75;;;5.68;;
83707;SDS011;73692;49.562;11.144;2023-11-18T01:00:51;10.10;;;5.35;;
83707;SDS011;73692;49.562;11.144;2023-11-18T01:03:17;9.10;;;5.40;;
83707;SDS011;73692;49.562;11.144;2023-11-18T01:05:43;8.10;;;4.72;;
83707;SDS011;73692;49.562;11.144;2023-11-18T01:10:34;9.13;;;5.13;;
83707;SDS011;73692;49.562;11.144;2023-11-18T01:12:59;9.73;;;4.60;;
83707;SDS011;73692;49.562;11.144;2023-11-18T01:15:25;9.85;;;4.78;;
83707;SDS011;73692;49.562;11.144;2023-11-18T01:17:51;8.52;;;4.70;;
83707;SDS011;73692;49.562;11.144;2023-11-18T01:20:16;7.13;;;4.05;;
83707;SDS011;73692;49.562;11.144;2023-11-18T01:22:46;7.85;;;4.53;;
83707;SDS011;73692;49.562;11.144;2023-11-18T01:25:13;6.90;;;4.55;;
83707;SDS011;73692;49.562;11.144;2023-11-18T01:27:41;7.18;;;4.22;;
83707;SDS011;73692;49.562;11.144;2023-11-18T01:30:06;7.05;;;4.55;;
83707;SDS011;73692;49.562;11.144;2023-11-18T01:32:32;10.43;;;5.43;;
83707;SDS011;73692;49.562;11.144;2023-11-18T01:34:57;9.73;;;5.43;;
83707;SDS011;73692;49.562;11.144;2023-11-18T01:37:22;14.30;;;5.70;;
83707;SDS011;73692;49.562;11.144;2023-11-18T01:39:49;7.13;;;4.60;;
83707;SDS011;73692;49.562;11.144;2023-11-18T01:42:14;8.07;;;5.05;;
83707;SDS011;73692;49.562;11.144;2023-11-18T01:44:40;8.55;;;5.30;;
83707;SDS011;73692;49.562;11.144;2023-11-18T01:47:05;8.60;;;5.40;;
83707;SDS011;73692;49.562;11.144;2023-11-18T01:49:32;8.82;;;4.80;;
83707;SDS011;73692;49.562;11.144;2023-11-18T01:52:02;8.82;;;5.38;;
83707;SDS011;73692;49.562;11.144;2023-11-18T01:54:27;8.73;;;5.18;;
83707;SDS011;73692;49.562;11.144;2023-11-18T01:56:53;8.45;;;5.13;;
83707;SDS011;73692;49.562;11.144;2023-11-18T01:59:19;8.32;;;4.50;;
83707;SDS011;73692;49.562;11.144;2023-11-18T02:04:17;9.50;;;5.18;;
83707;SDS011;73692;49.562;11.144;2023-11-18T02:06:44;7.28;;;4.78;;
83707;SDS011;73692;49.562;11.144;2023-11-18T02:09:11;12.05;;;4.88;;
83707;SDS011;73692;49.562;11.144;2023-11-18T02:11:39;8.10;;;4.60;;
83707;SDS011;73692;49.562;11.144;2023-11-18T02:14:10;9.52;;;5.30;;
83707;SDS011;73692;49.562;11.144;2023-11-18T02:16:38;10.40;;;5.07;;
83707;SDS011;73692;49.562;11.144;2023-11-18T02:19:08;9.18;;;4.63;;
83707;SDS011;73692;49.562;11.144;2023-11-18T02:21:46;9.88;;;5.40;;
83707;SDS011;73692;49.562;11.144;2023-11-18T02:24:29;8.05;;;5.05;;
83707;SDS011;73692;49.562;11.144;2023-11-18T02:26:58;12.10;;;5.63;;
83707;SDS011;73692;49.562;11.144;2023-11-18T02:29:24;10.48;;;5.45;;
83707;SDS011;73692;49.562;11.144;2023-11-18T02:31:52;9.05;;;4.75;;
83707;SDS011;73692;49.562;11.144;2023-11-18T02:34:19;10.80;;;5.45;;
83707;SDS011;73692;49.562;11.144;2023-11-18T02:36:48;9.13;;;5.10;;
83707;SDS011;73692;49.562;11.144;2023-11-18T02:39:20;7.10;;;4.47;;
83707;SDS011;73692;49.562;11.144;2023-11-18T02:41:48;8.40;;;4.70;;
83707;SDS011;73692;49.562;11.144;2023-11-18T02:44:14;7.28;;;4.53;;
83707;SDS011;73692;49.562;11.144;2023-11-18T02:46:43;10.40;;;5.88;;
83707;SDS011;73692;49.562;11.144;2023-11-18T02:49:08;10.32;;;5.72;;
83707;SDS011;73692;49.562;11.144;2023-11-18T02:51:34;9.77;;;5.47;;
83707;SDS011;73692;49.562;11.144;2023-11-18T02:54:04;9.52;;;5.32;;
83707;SDS011;73692;49.562;11.144;2023-11-18T02:56:35;11.18;;;5.75;;
83707;SDS011;73692;49.562;11.144;2023-11-18T02:59:00;8.10;;;4.65;;
83707;SDS011;73692;49.562;11.144;2023-11-18T03:01:26;9.07;;;5.78;;
83707;SDS011;73692;49.562;11.144;2023-11-18T03:03:52;8.05;;;4.30;;
83707;SDS011;73692;49.562;11.144;2023-11-18T03:06:18;7.30;;;4.50;;
83707;SDS011;73692;49.562;11.144;2023-11-18T03:08:43;9.10;;;4.43;;
83707;SDS011;73692;49.562;11.144;2023-11-18T03:11:09;10.45;;;4.97;;
83707;SDS011;73692;49.562;11.144;2023-11-18T03:13:34;7.53;;;5.18;;
83707;SDS011;73692;49.562;11.144;2023-11-18T03:16:00;10.63;;;4.40;;
83707;SDS011;73692;49.562;11.144;2023-11-18T03:18:25;8.82;;;4.60;;
83707;SDS011;73692;49.562;11.144;2023-11-18T03:20:51;6.60;;;4.22;;
83707;SDS011;73692;49.562;11.144;2023-11-18T03:23:17;8.82;;;4.68;;
83707;SDS011;73692;49.562;11.144;2023-11-18T03:25:42;8.23;;;4.60;;
83707;SDS011;73692;49.562;11.144;2023-11-18T03:28:08;6.85;;;4.40;;
83707;SDS011;73692;49.562;11.144;2023-11-18T03:30:33;7.63;;;4.40;;
83707;SDS011;73692;49.562;11.144;2023-11-18T03:33:01;8.18;;;4.55;;
83707;SDS011;73692;49.562;11.144;2023-11-18T03:35:27;10.40;;;5.32;;
83707;SDS011;73692;49.562;11.144;2023-11-18T03:37:52;8.45;;;4.85;;
83707;SDS011;73692;49.562;11.144;2023-11-18T03:40:17;7.75;;;4.93;;
83707;SDS011;73692;49.562;11.144;2023-11-18T03:42:43;10.40;;;5.68;;
83707;SDS011;73692;49.562;11.144;2023-11-18T03:45:11;11.43;;;6.55;;
83707;SDS011;73692;49.562;11.144;2023-11-18T03:47:36;10.27;;;6.20;;
83707;SDS011;73692;49.562;11.144;2023-11-18T03:50:02;13.45;;;6.43;;
83707;SDS011;73692;49.562;11.144;2023-11-18T03:52:27;11.25;;;5.97;;
83707;SDS011;73692;49.562;11.144;2023-11-18T03:54:54;11.32;;;6.25;;
83707;SDS011;73692;49.562;11.144;2023-11-18T03:57:22;9.20;;;6.20;;
83707;SDS011;73692;49.562;11.144;2023-11-18T03:59:47;10.98;;;5.25;;
83707;SDS011;73692;49.562;11.144;2023-11-18T04:02:12;10.57;;;6.45;;
83707;SDS011;73692;49.562;11.144;2023-11-18T04:04:38;10.32;;;6.07;;
83707;SDS011;73692;49.562;11.144;2023-11-18T04:07:03;11.02;;;5.78;;
83707;SDS011;73692;49.562;11.144;2023-11-18T04:09:29;9.52;;;5.90;;
83707;SDS011;73692;49.562;11.144;2023-11-18T04:11:54;10.35;;;6.18;;
83707;SDS011;73692;49.562;11.144;2023-11-18T04:14:20;11.45;;;5.55;;
83707;SDS011;73692;49.562;11.144;2023-11-18T04:16:46;13.50;;;6.18;;
83707;SDS011;73692;49.562;11.144;2023-11-18T04:19:11;9.68;;;5.18;;
83707;SDS011;73692;49.562;11.144;2023-11-18T04:21:37;12.87;;;7.80;;
83707;SDS011;73692;49.562;11.144;2023-11-18T04:24:03;10.38;;;6.35;;
83707;SDS011;73692;49.562;11.144;2023-11-18T04:26:30;9.88;;;5.97;;
83707;SDS011;73692;49.562;11.144;2023-11-18T04:28:55;11.20;;;6.15;;
83707;SDS011;73692;49.562;11.144;2023-11-18T04:31:20;11.00;;;6.50;;
83707;SDS011;73692;49.562;11.144;2023-11-18T04:33:46;12.20;;;5.80;;
83707;SDS011;73692;49.562;11.144;2023-11-18T04:36:11;12.35;;;7.10;;
83707;SDS011;73692;49.562;11.144;2023-11-18T04:38:38;11.15;;;6.03;;
83707;SDS011;73692;49.562;11.144;2023-11-18T04:41:03;14.13;;;7.70;;
83707;SDS011;73692;49.562;11.144;2023-11-18T04:43:29;12.45;;;6.75;;
83707;SDS011;73692;49.562;11.144;2023-11-18T04:45:55;16.27;;;7.30;;
83707;SDS011;73692;49.562;11.144;2023-11-18T04:48:20;10.55;;;6.15;;
83707;SDS011;73692;49.562;11.144;2023-11-18T04:50:46;9.88;;;5.72;;
83707;SDS011;73692;49.562;11.144;2023-11-18T04:53:11;8.93;;;4.88;;
83707;SDS011;73692;49.562;11.144;2023-11-18T04:55:37;8.38;;;4.65;;
83707;SDS011;73692;49.562;11.144;2023-11-18T04:58:03;8.18;;;4.78;;
83707;SDS011;73692;49.562;11.144;2023-11-18T05:00:30;9.20;;;4.78;;
83707;SDS011;73692;49.562;11.144;2023-11-18T05:02:57;8.07;;;4.15;;
83707;SDS011;73692;49.562;11.144;2023-11-18T05:05:22;10.15;;;4.72;;
83707;SDS011;73692;49.562;11.144;2023-11-18T05:07:47;7.40;;;4.43;;
83707;SDS011;73692;49.562;11.144;2023-11-18T05:10:13;7.80;;;4.77;;
83707;SDS011;73692;49.562;11.144;2023-11-18T05:12:38;9.10;;;5.10;;
83707;SDS011;73692;49.562;11.144;2023-11-18T05:15:05;8.77;;;5.25;;
83707;SDS011;73692;49.562;11.144;2023-11-18T05:17:32;10.93;;;5.95;;
83707;SDS011;73692;49.562;11.144;2023-11-18T05:20:04;8.85;;;6.05;;
83707;SDS011;73692;49.562;11.144;2023-11-18T05:22:32;10.20;;;5.57;;
83707;SDS011;73692;49.562;11.144;2023-11-18T05:24:58;10.43;;;5.75;;
83707;SDS011;73692;49.562;11.144;2023-11-18T05:27:23;9.73;;;5.47;;
83707;SDS011;73692;49.562;11.144;2023-11-18T05:29:48;9.25;;;5.88;;
83707;SDS011;73692;49.562;11.144;2023-11-18T05:32:19;11.63;;;5.65;;
83707;SDS011;73692;49.562;11.144;2023-11-18T05:34:45;9.65;;;5.57;;
83707;SDS011;73692;49.562;11.144;2023-11-18T05:37:11;8.68;;;5.78;;
83707;SDS011;73692;49.562;11.144;2023-11-18T05:39:36;9.63;;;5.53;;
83707;SDS011;73692;49.562;11.144;2023-11-18T05:42:07;8.93;;;5.45;;
83707;SDS011;73692;49.562;11.144;2023-11-18T05:44:35;10.25;;;6.05;;
83707;SDS011;73692;49.562;11.144;2023-11-18T05:47:02;12.65;;;7.25;;
83707;SDS011;73692;49.562;11.144;2023-11-18T05:49:28;11.50;;;6.75;;
83707;SDS011;73692;49.562;11.144;2023-11-18T05:51:53;11.50;;;6.13;;
83707;SDS011;73692;49.562;11.144;2023-11-18T05:54:19;14.30;;;7.38;;
83707;SDS011;73692;49.562;11.144;2023-11-18T05:56:44;16.23;;;7.25;;
83707;SDS011;73692;49.562;11.144;2023-11-18T05:59:09;11.05;;;6.63;;
83707;SDS011;73692;49.562;11.144;2023-11-18T06:01:35;11.15;;;6.57;;
83707;SDS011;73692;49.562;11.144;2023-11-18T06:04:02;14.77;;;7.15;;
83707;SDS011;73692;49.562;11.144;2023-11-18T06:06:28;16.48;;;9.05;;
83707;SDS011;73692;49.562;11.144;2023-11-18T06:08:53;14.77;;;7.45;;
83707;SDS011;73692;49.562;11.144;2023-11-18T06:11:18;13.70;;;7.40;;
83707;SDS011;73692;49.562;11.144;2023-11-18T06:13:48;11.82;;;7.53;;
83707;SDS011;73692;49.562;11.144;2023-11-18T06:16:21;17.13;;;7.43;;
83707;SDS011;73692;49.562;11.144;2023-11-18T06:18:48;12.38;;;7.15;;
83707;SDS011;73692;49.562;11.144;2023-11-18T06:21:15;13.63;;;7.35;;
83707;SDS011;73692;49.562;11.144;2023-11-18T06:23:41;12.23;;;7.53;;
83707;SDS011;73692;49.562;11.144;2023-11-18T06:26:07;11.70;;;7.15;;
83707;SDS011;73692;49.562;11.144;2023-11-18T06:28:35;15.15;;;7.28;;
83707;SDS011;73692;49.562;11.144;2023-11-18T06:31:01;11.23;;;6.43;;
83707;SDS011;73692;49.562;11.144;2023-11-18T06:33:26;15.40;;;7.63;;
83707;SDS011;73692;49.562;11.144;2023-11-18T06:35:53;12.93;;;7.15;;
83707;SDS011;73692;49.562;11.144;2023-11-18T06:38:19;10.18;;;6.05;;
83707;SDS011;73692;49.562;11.144;2023-11-18T06:40:45;13.13;;;6.13;;
83707;SDS011;73692;49.562;11.144;2023-11-18T06:43:11;14.15;;;7.15;;
83707;SDS011;73692;49.562;11.144;2023-11-18T06:45:36;10.75;;;5.80;;
83707;SDS011;73692;49.562;11.144;2023-11-18T06:48:03;10.95;;;6.40;;
83707;SDS011;73692;49.562;11.144;2023-11-18T06:50:30;10.73;;;5.85;;
83707;SDS011;73692;49.562;11.144;2023-11-18T06:52:56;11.63;;;4.68;;
83707;SDS011;73692;49.562;11.144;2023-11-18T06:55:22;12.95;;;6.63;;
83707;SDS011;73692;49.562;11.144;2023-11-18T06:57:47;11.38;;;5.68;;
83707;SDS011;73692;49.562;11.144;2023-11-18T07:00:13;10.02;;;5.05;;
83707;SDS011;73692;49.562;11.144;2023-11-18T07:02:40;10.77;;;5.35;;
83707;SDS011;73692;49.562;11.144;2023-11-18T07:05:05;10.35;;;4.85;;
83707;SDS011;73692;49.562;11.144;2023-11-18T07:07:31;10.35;;;5.40;;
83707;SDS011;73692;49.562;11.144;2023-11-18T07:09:57;9.45;;;4.97;;
83707;SDS011;73692;49.562;11.144;2023-11-18T07:12:22;11.82;;;6.00;;
83707;SDS011;73692;49.562;11.144;2023-11-18T07:14:48;9.57;;;5.10;;
83707;SDS011;73692;49.562;11.144;2023-11-18T07:17:13;11.32;;;5.65;;
83707;SDS011;73692;49.562;11.144;2023-11-18T07:19:39;9.43;;;5.05;;
83707;SDS011;73692;49.562;11.144;2023-11-18T07:22:05;15.95;;;5.85;;
83707;SDS011;73692;49.562;11.144;2023-11-18T07:24:31;8.52;;;3.72;;
83707;SDS011;73692;49.562;11.144;2023-11-18T07:26:57;23.73;;;7.55;;
83707;SDS011;73692;49.562;11.144;2023-11-18T07:29:24;18.83;;;6.40;;
83707;SDS011;73692;49.562;11.144;2023-11-18T07:31:50;19.80;;;6.43;;
83707;SDS011;73692;49.562;11.144;2023-11-18T07:34:15;16.83;;;7.20;;
83707;SDS011;73692;49.562;11.144;2023-11-18T07:36:40;23.40;;;6.03;;
83707;SDS011;73692;49.562;11.144;2023-11-18T07:39:06;29.02;;;6.47;;
83707;SDS011;73692;49.562;11.144;2023-11-18T07:41:40;23.95;;;6.45;;
83707;SDS011;73692;49.562;11.144;2023-11-18T07:44:06;29.55;;;6.53;;
83707;SDS011;73692;49.562;11.144;2023-11-18T07:46:31;18.30;;;5.90;;
83707;SDS011;73692;49.562;11.144;2023-11-18T07:48:56;18.50;;;6.05;;
83707;SDS011;73692;49.562;11.144;2023-11-18T07:51:22;15.65;;;5.93;;
83707;SDS011;73692;49.562;11.144;2023-11-18T07:53:48;22.48;;;6.05;;
83707;SDS011;73692;49.562;11.144;2023-11-18T07:56:14;17.38;;;6.60;;
83707;SDS011;73692;49.562;11.144;2023-11-18T07:58:41;10.82;;;5.20;;
83707;SDS011;73692;49.562;11.144;2023-11-18T08:01:10;18.88;;;4.93;;
83707;SDS011;73692;49.562;11.144;2023-11-18T08:03:36;16.88;;;5.32;;
83707;SDS011;73692;49.562;11.144;2023-11-18T08:06:02;15.93;;;5.05;;
83707;SDS011;73692;49.562;11.144;2023-11-18T08:08:28;14.82;;;6.70;;
83707;SDS011;73692;49.562;11.144;2023-11-18T08:10:53;16.25;;;7.55;;
83707;SDS011;73692;49.562;11.144;2023-11-18T08:13:20;12.50;;;6.32;;
83707;SDS011;73692;49.562;11.144;2023-11-18T08:15:46;15.52;;;7.93;;
83707;SDS011;73692;49.562;11.144;2023-11-18T08:18:12;15.80;;;6.47;;
83707;SDS011;73692;49.562;11.144;2023-11-18T08:20:37;13.73;;;7.20;;
83707;SDS011;73692;49.562;11.144;2023-11-18T08:23:03;15.38;;;8.48;;
83707;SDS011;73692;49.562;11.144;2023-11-18T08:25:31;10.77;;;5.85;;
83707;SDS011;73692;49.562;11.144;2023-11-18T08:28:00;12.75;;;6.63;;
83707;SDS011;73692;49.562;11.144;2023-11-18T08:30:25;11.68;;;6.30;;
83707;SDS011;73692;49.562;11.144;2023-11-18T08:32:51;10.77;;;5.55;;
83707;SDS011;73692;49.562;11.144;2023-11-18T08:35:17;11.05;;;6.18;;
83707;SDS011;73692;49.562;11.144;2023-11-18T08:37:43;9.85;;;5.55;;
83707;SDS011;73692;49.562;11.144;2023-11-18T08:40:09;9.98;;;4.80;;
83707;SDS011;73692;49.562;11.144;2023-11-18T08:42:44;11.80;;;5.25;;
83707;SDS011;73692;49.562;11.144;2023-11-18T08:45:18;13.60;;;5.88;;
83707;SDS011;73692;49.562;11.144;2023-11-18T08:50:15;14.15;;;7.88;;
83707;SDS011;73692;49.562;11.144;2023-11-18T08:52:42;20.90;;;13.07;;
83707;SDS011;73692;49.562;11.144;2023-11-18T08:55:18;33.28;;;20.20;;
83707;SDS011;73692;49.562;11.144;2023-11-18T08:57:46;15.65;;;7.13;;
83707;SDS011;73692;49.562;11.144;2023-11-18T09:00:25;9.68;;;5.13;;
83707;SDS011;73692;49.562;11.144;2023-11-18T09:03:15;9.25;;;5.05;;
83707;SDS011;73692;49.562;11.144;2023-11-18T09:05:53;10.65;;;5.93;;
83707;SDS011;73692;49.562;11.144;2023-11-18T09:08:33;10.98;;;5.68;;
83707;SDS011;73692;49.562;11.144;2023-11-18T09:11:00;11.50;;;5.55;;
83707;SDS011;73692;49.562;11.144;2023-11-18T09:13:26;11.60;;;6.35;;
83707;SDS011;73692;49.562;11.144;2023-11-18T09:15:58;13.00;;;6.60;;
83707;SDS011;73692;49.562;11.144;2023-11-18T09:18:25;13.77;;;6.55;;
83707;SDS011;73692;49.562;11.144;2023-11-18T09:20:52;15.68;;;7.13;;
83707;SDS011;73692;49.562;11.144;2023-11-18T09:23:21;14.55;;;6.38;;
83707;SDS011;73692;49.562;11.144;2023-11-18T09:25:48;13.13;;;6.53;;
83707;SDS011;73692;49.562;11.144;2023-11-18T09:28:15;12.25;;;6.47;;
83707;SDS011;73692;49.562;11.144;2023-11-18T09:30:41;14.15;;;6.72;;
83707;SDS011;73692;49.562;11.144;2023-11-18T09:33:15;10.82;;;5.97;;
83707;SDS011;73692;49.562;11.144;2023-11-18T09:36:02;11.65;;;5.78;;
83707;SDS011;73692;49.562;11.144;2023-11-18T09:38:32;12.55;;;6.53;;
83707;SDS011;73692;49.562;11.144;2023-11-18T09:41:00;13.55;;;6.93;;
83707;SDS011;73692;49.562;11.144;2023-11-18T09:43:35;11.88;;;6.40;;
83707;SDS011;73692;49.562;11.144;2023-11-18T09:46:24;11.45;;;5.90;;
83707;SDS011;73692;49.562;11.144;2023-11-18T09:48:52;12.73;;;5.82;;
83707;SDS011;73692;49.562;11.144;2023-11-18T09:51:24;13.65;;;6.88;;
83707;SDS011;73692;49.562;11.144;2023-11-18T09:54:16;14.25;;;7.35;;
83707;SDS011;73692;49.562;11.144;2023-11-18T09:59:26;11.98;;;6.78;;
83707;SDS011;73692;49.562;11.144;2023-11-18T10:01:59;14.05;;;6.43;;
83707;SDS011;73692;49.562;11.144;2023-11-18T10:04:25;12.60;;;6.60;;
83707;SDS011;73692;49.562;11.144;2023-11-18T10:06:53;13.07;;;6.40;;
83707;SDS011;73692;49.562;11.144;2023-11-18T10:09:21;16.92;;;8.32;;
83707;SDS011;73692;49.562;11.144;2023-11-18T10:11:53;13.73;;;7.07;;
83707;SDS011;73692;49.562;11.144;2023-11-18T10:16:51;12.75;;;6.18;;
83707;SDS011;73692;49.562;11.144;2023-11-18T10:19:19;14.27;;;6.95;;
83707;SDS011;73692;49.562;11.144;2023-11-18T10:21:45;11.27;;;5.93;;
83707;SDS011;73692;49.562;11.144;2023-11-18T10:24:13;14.40;;;7.00;;
83707;SDS011;73692;49.562;11.144;2023-11-18T10:26:44;13.30;;;6.28;;
83707;SDS011;73692;49.562;11.144;2023-11-18T10:29:11;14.40;;;7.10;;
83707;SDS011;73692;49.562;11.144;2023-11-18T10:31:39;13.10;;;6.68;;
83707;SDS011;73692;49.562;11.144;2023-11-18T10:34:10;14.32;;;7.38;;
83707;SDS011;73692;49.562;11.144;2023-11-18T10:36:37;17.02;;;7.53;;
83707;SDS011;73692;49.562;11.144;2023-11-18T10:39:03;13.57;;;6.35;;
83707;SDS011;73692;49.562;11.144;2023-11-18T10:41:40;13.30;;;6.35;;
83707;SDS011;73692;49.562;11.144;2023-11-18T10:44:07;18.30;;;8.88;;
83707;SDS011;73692;49.562;11.144;2023-11-18T10:46:38;16.75;;;7.53;;
83707;SDS011;73692;49.562;11.144;2023-11-18T10:49:05;17.80;;;8.32;;
83707;SDS011;73692;49.562;11.144;2023-11-18T10:51:34;18.20;;;7.97;;
83707;SDS011;73692;49.562;11.144;2023-11-18T10:54:04;16.55;;;8.52;;
83707;SDS011;73692;49.562;11.144;2023-11-18T10:56:30;17.55;;;9.00;;
83707;SDS011;73692;49.562;11.144;2023-11-18T10:58:55;13.38;;;6.75;;
83707;SDS011;73692;49.562;11.144;2023-11-18T11:01:32;18.60;;;7.70;;
83707;SDS011;73692;49.562;11.144;2023-11-18T11:03:58;20.48;;;8.70;;
83707;SDS011;73692;49.562;11.144;2023-11-18T11:06:24;19.88;;;8.93;;
83707;SDS011;73692;49.562;11.144;2023-11-18T11:08:51;18.73;;;9.00;;
83707;SDS011;73692;49.562;11.144;2023-11-18T11:11:20;18.73;;;8.98;;
83707;SDS011;73692;49.562;11.144;2023-11-18T11:13:57;17.85;;;9.05;;
83707;SDS011;73692;49.562;11.144;2023-11-18T11:16:27;18.00;;;8.35;;
83707;SDS011;73692;49.562;11.144;2023-11-18T11:18:58;16.67;;;8.30;;
83707;SDS011;73692;49.562;11.144;2023-11-18T11:21:33;23.05;;;11.00;;
83707;SDS011;73692;49.562;11.144;2023-11-18T11:24:11;19.13;;;10.02;;
83707;SDS011;73692;49.562;11.144;2023-11-18T11:26:57;17.92;;;9.43;;
83707;SDS011;73692;49.562;11.144;2023-11-18T11:29:36;16.02;;;8.20;;
83707;SDS011;73692;49.562;11.144;2023-11-18T11:32:28;21.15;;;8.63;;
83707;SDS011;73692;49.562;11.144;2023-11-18T11:35:01;19.45;;;9.13;;
83707;SDS011;73692;49.562;11.144;2023-11-18T11:37:32;17.55;;;9.43;;
83707;SDS011;73692;49.562;11.144;2023-11-18T11:39:59;22.95;;;9.73;;
83707;SDS011;73692;49.562;11.144;2023-11-18T11:42:29;18.45;;;8.63;;
83707;SDS011;73692;49.562;11.144;2023-11-18T11:44:56;21.35;;;10.10;;
83707;SDS011;73692;49.562;11.144;2023-11-18T11:47:23;20.67;;;10.88;;
83707;SDS011;73692;49.562;11.144;2023-11-18T11:50:01;17.08;;;8.75;;
83707;SDS011;73692;49.562;11.144;2023-11-18T11:52:37;17.33;;;9.07;;
83707;SDS011;73692;49.562;11.144;2023-11-18T11:55:10;17.52;;;8.63;;
83707;SDS011;73692;49.562;11.144;2023-11-18T11:57:39;20.88;;;10.23;;
83707;SDS011;73692;49.562;11.144;2023-11-18T12:02:40;16.88;;;8.40;;
83707;SDS011;73692;49.562;11.144;2023-11-18T12:05:15;17.50;;;9.15;;
83707;SDS011;73692;49.562;11.144;2023-11-18T12:07:43;18.95;;;9.30;;
83707;SDS011;73692;49.562;11.144;2023-11-18T12:10:11;17.58;;;9.23;;
83707;SDS011;73692;49.562;11.144;2023-11-18T12:12:45;16.15;;;8.70;;
83707;SDS011;73692;49.562;11.144;2023-11-18T12:20:39;15.20;;;9.20;;
83707;SDS011;73692;49.562;11.144;2023-11-18T12:23:18;14.52;;;8.15;;
83707;SDS011;73692;49.562;11.144;2023-11-18T12:25:48;13.32;;;8.40;;
83707;SDS011;73692;49.562;11.144;2023-11-18T12:28:25;12.98;;;7.18;;
83707;SDS011;73692;49.562;11.144;2023-11-18T12:30:52;13.10;;;8.18;;
83707;SDS011;73692;49.562;11.144;2023-11-18T12:33:24;14.00;;;8.57;;
83707;SDS011;73692;49.562;11.144;2023-11-18T12:39:13;14.27;;;8.77;;
83707;SDS011;73692;49.562;11.144;2023-11-18T12:42:03;15.98;;;8.38;;
83707;SDS011;73692;49.562;11.144;2023-11-18T12:44:35;13.45;;;7.75;;
83707;SDS011;73692;49.562;11.144;2023-11-18T12:47:04;15.63;;;7.82;;
83707;SDS011;73692;49.562;11.144;2023-11-18T12:49:43;12.90;;;7.80;;
83707;SDS011;73692;49.562;11.144;2023-11-18T12:52:09;12.82;;;8.27;;
83707;SDS011;73692;49.562;11.144;2023-11-18T12:54:35;15.45;;;8.18;;
83707;SDS011;73692;49.562;11.144;2023-11-18T12:57:03;14.38;;;8.35;;
83707;SDS011;73692;49.562;11.144;2023-11-18T12:59:31;12.63;;;7.25;;
83707;SDS011;73692;49.562;11.144;2023-11-18T13:02:00;13.75;;;7.57;;
83707;SDS011;73692;49.562;11.144;2023-11-18T13:04:29;15.52;;;8.43;;
83707;SDS011;73692;49.562;11.144;2023-11-18T13:06:58;15.23;;;8.38;;
83707;SDS011;73692;49.562;11.144;2023-11-18T13:09:25;14.00;;;7.97;;
83707;SDS011;73692;49.562;11.144;2023-11-18T13:11:54;14.85;;;7.90;;
83707;SDS011;73692;49.562;11.144;2023-11-18T13:14:22;12.27;;;7.53;;
83707;SDS011;73692;49.562;11.144;2023-11-18T13:16:50;13.15;;;7.82;;
83707;SDS011;73692;49.562;11.144;2023-11-18T13:19:24;13.60;;;7.85;;
83707;SDS011;73692;49.562;11.144;2023-11-18T13:21:51;13.80;;;7.97;;
83707;SDS011;73692;49.562;11.144;2023-11-18T13:24:17;13.50;;;7.28;;
83707;SDS011;73692;49.562;11.144;2023-11-18T13:29:08;13.10;;;7.03;;
83707;SDS011;73692;49.562;11.144;2023-11-18T13:33:59;12.90;;;7.50;;
83707;SDS011;73692;49.562;11.144;2023-11-18T13:38:51;16.60;;;8.45;;
83707;SDS011;73692;49.562;11.144;2023-11-18T13:44:02;12.15;;;6.50;;
83707;SDS011;73692;49.562;11.144;2023-11-18T13:48:53;12.07;;;7.13;;
83707;SDS011;73692;49.562;11.144;2023-11-18T13:53:44;15.60;;;7.65;;
83707;SDS011;73692;49.562;11.144;2023-11-18T13:56:11;13.48;;;7.30;;
83707;SDS011;73692;49.562;11.144;2023-11-18T13:58:37;12.60;;;6.88;;
83707;SDS011;73692;49.562;11.144;2023-11-18T14:01:09;13.63;;;7.20;;
83707;SDS011;73692;49.562;11.144;2023-11-18T14:03:37;13.55;;;7.07;;
83707;SDS011;73692;49.562;11.144;2023-11-18T14:08:31;12.95;;;7.15;;
83707;SDS011;73692;49.562;11.144;2023-11-18T14:13:21;14.47;;;7.37;;
83707;SDS011;73692;49.562;11.144;2023-11-18T14:18:13;11.90;;;6.72;;
83707;SDS011;73692;49.562;11.144;2023-11-18T14:23:04;11.93;;;6.43;;
83707;SDS011;73692;49.562;11.144;2023-11-18T14:27:55;12.45;;;6.95;;
83707;SDS011;73692;49.562;11.144;2023-11-18T14:30:21;11.32;;;7.15;;
83707;SDS011;73692;49.562;11.144;2023-11-18T14:32:49;12.30;;;6.30;;
83707;SDS011;73692;49.562;11.144;2023-11-18T14:37:42;11.65;;;6.25;;
83707;SDS011;73692;49.562;11.144;2023-11-18T14:40:11;15.20;;;7.32;;
83707;SDS011;73692;49.562;11.144;2023-11-18T14:42:41;11.02;;;6.75;;
83707;SDS011;73692;49.562;11.144;2023-11-18T14:45:08;12.52;;;7.40;;
83707;SDS011;73692;49.562;11.144;2023-11-18T14:49:59;12.10;;;6.90;;
83707;SDS011;73692;49.562;11.144;2023-11-18T14:52:25;11.85;;;6.97;;
83707;SDS011;73692;49.562;11.144;2023-11-18T14:57:16;13.50;;;6.85;;
83707;SDS011;73692;49.562;11.144;2023-11-18T14:59:41;10.77;;;7.00;;
83707;SDS011;73692;49.562;11.144;2023-11-18T15:02:06;14.02;;;7.68;;
83707;SDS011;73692;49.562;11.144;2023-11-18T15:04:33;13.27;;;7.65;;
83707;SDS011;73692;49.562;11.144;2023-11-18T15:09:23;10.80;;;6.20;;
83707;SDS011;73692;49.562;11.144;2023-11-18T15:14:17;8.07;;;4.75;;
83707;SDS011;73692;49.562;11.144;2023-11-18T15:19:09;9.38;;;5.22;;
83707;SDS011;73692;49.562;11.144;2023-11-18T15:21:36;9.65;;;4.88;;
83707;SDS011;73692;49.562;11.144;2023-11-18T15:26:28;6.82;;;3.97;;
83707;SDS011;73692;49.562;11.144;2023-11-18T15:28:56;8.60;;;4.32;;
83707;SDS011;73692;49.562;11.144;2023-11-18T15:31:23;7.93;;;4.25;;
83707;SDS011;73692;49.562;11.144;2023-11-18T15:36:14;6.80;;;3.75;;
83707;SDS011;73692;49.562;11.144;2023-11-18T15:41:05;6.30;;;3.73;;